sensor_id;sensor_type;location;lat;lon;timestamp;pressure;altitude;pressure_sealevel;temperature;humidity
61136;BME280;47021;51.340;12.432;2023-05-01T00:03:40;100612.41;;;10.08;57.58
61136;BME280;47021;51.340;12.432;2023-05-01T00:06:19;100610.41;;;10.35;57.09
61136;BME280;47021;51.340;12.432;2023-05-01T00:09:02;100607.44;;;10.29;57.21
61136;BME280;47021;51.340;12.432;2023-05-01T00:11:27;100597.09;;;10.27;56.87
61136;BME280;47021;51.340;12.432;2023-05-01T00:13:54;100600.91;;;10.34;57.18
61136;BME280;47021;51.340;12.432;2023-05-01T00:16:21;100595.13;;;10.42;56.71
61136;BME280;47021;51.340;12.432;2023-05-01T00:21:31;100591.38;;;10.22;55.86
61136;BME280;47021;51.340;12.432;2023-05-01T00:24:15;100587.25;;;10.07;55.84
61136;BME280;47021;51.340;12.432;2023-05-01T00:26:47;100579.22;;;10.10;55.81
61136;BME280;47021;51.340;12.432;2023-05-01T00:29:14;100587.44;;;9.93;56.69
61136;BME280;47021;51.340;12.432;2023-05-01T00:37:17;100577.84;;;9.93;56.24
61136;BME280;47021;51.340;12.432;2023-05-01T00:39:44;100572.72;;;10.16;55.73
61136;BME280;47021;51.340;12.432;2023-05-01T00:42:15;100570.84;;;10.18;55.62
61136;BME280;47021;51.340;12.432;2023-05-01T00:44:40;100569.34;;;10.03;56.14
61136;BME280;47021;51.340;12.432;2023-05-01T00:47:12;100568.34;;;10.16;55.98
61136;BME280;47021;51.340;12.432;2023-05-01T00:49:39;100561.47;;;10.15;56.01
61136;BME280;47021;51.340;12.432;2023-05-01T00:52:05;100563.41;;;10.24;55.73
61136;BME280;47021;51.340;12.432;2023-05-01T00:54:37;100560.88;;;10.23;53.78
61136;BME280;47021;51.340;12.432;2023-05-01T00:57:03;100552.09;;;10.13;53.90
61136;BME280;47021;51.340;12.432;2023-05-01T00:59:31;100548.56;;;9.90;53.41
61136;BME280;47021;51.340;12.432;2023-05-01T01:01:56;100542.78;;;10.09;52.97
61136;BME280;47021;51.340;12.432;2023-05-01T01:04:21;100541.91;;;9.97;52.06
61136;BME280;47021;51.340;12.432;2023-05-01T01:15:32;100519.41;;;9.72;51.40
61136;BME280;47021;51.340;12.432;2023-05-01T01:18:07;100520.25;;;9.97;51.39
61136;BME280;47021;51.340;12.432;2023-05-01T01:36:55;100500.56;;;10.04;53.00
61136;BME280;47021;51.340;12.432;2023-05-01T01:39:42;100505.72;;;9.92;54.82
61136;BME280;47021;51.340;12.432;2023-05-01T01:42:12;100504.66;;;9.84;55.62
61136;BME280;47021;51.340;12.432;2023-05-01T01:44:46;100500.53;;;9.92;56.05
61136;BME280;47021;51.340;12.432;2023-05-01T01:47:19;100502.66;;;9.87;55.50
61136;BME280;47021;51.340;12.432;2023-05-01T01:49:47;100501.06;;;9.74;55.90
61136;BME280;47021;51.340;12.432;2023-05-01T01:52:15;100499.28;;;9.74;56.14
61136;BME280;47021;51.340;12.432;2023-05-01T01:54:49;100487.88;;;9.64;54.59
61136;BME280;47021;51.340;12.432;2023-05-01T01:57:16;100486.03;;;9.77;52.98
61136;BME280;47021;51.340;12.432;2023-05-01T01:59:50;100479.28;;;9.86;53.25
61136;BME280;47021;51.340;12.432;2023-05-01T02:02:24;100482.34;;;9.80;53.92
61136;BME280;47021;51.340;12.432;2023-05-01T02:04:50;100477.38;;;9.88;53.90
61136;BME280;47021;51.340;12.432;2023-05-01T02:07:16;100482.38;;;9.91;54.26
61136;BME280;47021;51.340;12.432;2023-05-01T02:15:09;100478.34;;;9.52;55.87
61136;BME280;47021;51.340;12.432;2023-05-01T02:17:34;100473.78;;;9.43;55.68
61136;BME280;47021;51.340;12.432;2023-05-01T02:20:00;100475.19;;;9.36;55.50
61136;BME280;47021;51.340;12.432;2023-05-01T02:22:26;100476.19;;;9.46;55.29
61136;BME280;47021;51.340;12.432;2023-05-01T02:30:21;100453.97;;;9.64;53.84
61136;BME280;47021;51.340;12.432;2023-05-01T02:32:49;100448.28;;;9.59;54.50
61136;BME280;47021;51.340;12.432;2023-05-01T02:35:14;100449.63;;;9.41;54.73
61136;BME280;47021;51.340;12.432;2023-05-01T02:37:47;100444.66;;;9.49;55.15
61136;BME280;47021;51.340;12.432;2023-05-01T02:40:14;100439.03;;;9.55;54.79
61136;BME280;47021;51.340;12.432;2023-05-01T02:42:42;100438.03;;;9.45;55.26
61136;BME280;47021;51.340;12.432;2023-05-01T02:45:09;100440.50;;;9.47;55.95
61136;BME280;47021;51.340;12.432;2023-05-01T02:47:36;100437.75;;;9.37;56.05
61136;BME280;47021;51.340;12.432;2023-05-01T02:50:02;100430.88;;;9.36;55.56
61136;BME280;47021;51.340;12.432;2023-05-01T02:52:28;100437.53;;;9.40;55.97
61136;BME280;47021;51.340;12.432;2023-05-01T02:55:00;100433.44;;;9.49;55.85
61136;BME280;47021;51.340;12.432;2023-05-01T02:57:25;100423.91;;;9.13;55.38
61136;BME280;47021;51.340;12.432;2023-05-01T03:00:09;100423.34;;;8.97;56.08
61136;BME280;47021;51.340;12.432;2023-05-01T03:02:35;100431.16;;;8.97;56.29
61136;BME280;47021;51.340;12.432;2023-05-01T03:05:08;100427.13;;;8.80;56.32
61136;BME280;47021;51.340;12.432;2023-05-01T03:07:34;100414.28;;;8.90;56.45
61136;BME280;47021;51.340;12.432;2023-05-01T03:10:00;100408.88;;;8.93;55.73
61136;BME280;47021;51.340;12.432;2023-05-01T03:12:27;100409.97;;;8.78;55.43
61136;BME280;47021;51.340;12.432;2023-05-01T03:14:55;100410.03;;;8.89;55.77
61136;BME280;47021;51.340;12.432;2023-05-01T03:17:32;100403.66;;;8.93;55.65
61136;BME280;47021;51.340;12.432;2023-05-01T03:20:01;100399.19;;;8.95;55.43
61136;BME280;47021;51.340;12.432;2023-05-01T03:25:10;100398.91;;;8.87;55.37
61136;BME280;47021;51.340;12.432;2023-05-01T03:27:43;100390.97;;;8.88;56.20
61136;BME280;47021;51.340;12.432;2023-05-01T03:30:09;100400.34;;;8.91;55.88
61136;BME280;47021;51.340;12.432;2023-05-01T03:32:40;100391.78;;;9.12;56.16
61136;BME280;47021;51.340;12.432;2023-05-01T03:35:06;100391.53;;;9.04;55.73
61136;BME280;47021;51.340;12.432;2023-05-01T03:37:32;100379.03;;;8.73;56.22
61136;BME280;47021;51.340;12.432;2023-05-01T03:39:58;100382.81;;;8.69;56.52
61136;BME280;47021;51.340;12.432;2023-05-01T03:42:23;100378.28;;;8.84;56.92
61136;BME280;47021;51.340;12.432;2023-05-01T03:44:49;100374.59;;;8.63;56.75
61136;BME280;47021;51.340;12.432;2023-05-01T03:47:15;100366.78;;;8.63;57.06
61136;BME280;47021;51.340;12.432;2023-05-01T03:49:42;100365.69;;;8.54;57.27
61136;BME280;47021;51.340;12.432;2023-05-01T03:52:07;100369.94;;;8.55;56.52
61136;BME280;47021;51.340;12.432;2023-05-01T03:54:32;100372.25;;;8.83;56.08
61136;BME280;47021;51.340;12.432;2023-05-01T03:59:59;100360.13;;;8.95;56.22
61136;BME280;47021;51.340;12.432;2023-05-01T04:02:30;100362.25;;;9.01;55.84
61136;BME280;47021;51.340;12.432;2023-05-01T04:04:57;100361.53;;;8.99;55.77
61136;BME280;47021;51.340;12.432;2023-05-01T04:10:05;100368.00;;;9.17;56.43
61136;BME280;47021;51.340;12.432;2023-05-01T04:12:31;100370.69;;;9.28;56.42
61136;BME280;47021;51.340;12.432;2023-05-01T04:14:56;100367.84;;;9.31;55.99
61136;BME280;47021;51.340;12.432;2023-05-01T04:17:22;100368.34;;;9.12;55.92
61136;BME280;47021;51.340;12.432;2023-05-01T04:19:47;100367.63;;;9.10;56.44
61136;BME280;47021;51.340;12.432;2023-05-01T04:22:13;100371.78;;;9.37;56.46
61136;BME280;47021;51.340;12.432;2023-05-01T04:24:40;100363.97;;;9.37;55.58
61136;BME280;47021;51.340;12.432;2023-05-01T04:27:11;100370.59;;;9.41;55.70
61136;BME280;47021;51.340;12.432;2023-05-01T04:29:45;100370.34;;;9.33;55.76
61136;BME280;47021;51.340;12.432;2023-05-01T04:32:24;100370.97;;;9.47;55.35
61136;BME280;47021;51.340;12.432;2023-05-01T04:34:51;100371.88;;;9.35;55.91
61136;BME280;47021;51.340;12.432;2023-05-01T04:37:17;100375.28;;;9.24;56.20
61136;BME280;47021;51.340;12.432;2023-05-01T04:39:58;100363.59;;;9.30;55.96
61136;BME280;47021;51.340;12.432;2023-05-01T04:42:28;100372.09;;;9.67;55.38
61136;BME280;47021;51.340;12.432;2023-05-01T04:44:56;100367.25;;;9.73;54.48
61136;BME280;47021;51.340;12.432;2023-05-01T04:47:28;100365.25;;;9.88;54.15
61136;BME280;47021;51.340;12.432;2023-05-01T04:49:56;100365.00;;;9.69;54.35
61136;BME280;47021;51.340;12.432;2023-05-01T04:52:27;100363.59;;;9.87;53.97
61136;BME280;47021;51.340;12.432;2023-05-01T04:54:53;100356.84;;;9.84;54.26
61136;BME280;47021;51.340;12.432;2023-05-01T04:57:25;100355.28;;;10.04;54.16
61136;BME280;47021;51.340;12.432;2023-05-01T05:02:30;100355.69;;;10.22;54.11
61136;BME280;47021;51.340;12.432;2023-05-01T05:05:02;100361.63;;;10.24;53.80
61136;BME280;47021;51.340;12.432;2023-05-01T05:07:41;100360.28;;;9.85;54.14
61136;BME280;47021;51.340;12.432;2023-05-01T05:10:14;100361.81;;;9.87;54.16
61136;BME280;47021;51.340;12.432;2023-05-01T05:12:39;100369.78;;;10.08;53.93
61136;BME280;47021;51.340;12.432;2023-05-01T05:15:12;100361.28;;;10.28;54.47
61136;BME280;47021;51.340;12.432;2023-05-01T05:17:39;100358.88;;;10.36;53.72
61136;BME280;47021;51.340;12.432;2023-05-01T05:20:07;100363.09;;;10.71;53.40
61136;BME280;47021;51.340;12.432;2023-05-01T05:22:35;100357.78;;;10.72;53.57
61136;BME280;47021;51.340;12.432;2023-05-01T05:25:00;100366.78;;;10.79;52.46
61136;BME280;47021;51.340;12.432;2023-05-01T05:27:25;100363.09;;;10.82;53.56
61136;BME280;47021;51.340;12.432;2023-05-01T05:29:50;100356.78;;;11.16;52.75
61136;BME280;47021;51.340;12.432;2023-05-01T05:32:33;100354.38;;;11.24;52.09
61136;BME280;47021;51.340;12.432;2023-05-01T05:34:58;100348.38;;;11.33;52.00
61136;BME280;47021;51.340;12.432;2023-05-01T05:37:24;100348.59;;;11.41;51.48
61136;BME280;47021;51.340;12.432;2023-05-01T05:42:32;100346.41;;;11.87;50.63
61136;BME280;47021;51.340;12.432;2023-05-01T05:45:05;100338.91;;;11.94;50.62
61136;BME280;47021;51.340;12.432;2023-05-01T05:50:11;100339.31;;;11.69;50.86
61136;BME280;47021;51.340;12.432;2023-05-01T05:52:40;100333.56;;;12.05;50.57
61136;BME280;47021;51.340;12.432;2023-05-01T05:55:05;100335.97;;;12.27;50.01
61136;BME280;47021;51.340;12.432;2023-05-01T05:57:49;100334.69;;;12.12;49.63
61136;BME280;47021;51.340;12.432;2023-05-01T06:02:58;100338.41;;;12.10;50.33
61136;BME280;47021;51.340;12.432;2023-05-01T06:05:23;100322.66;;;12.40;50.53
61136;BME280;47021;51.340;12.432;2023-05-01T06:10:32;100329.06;;;12.17;50.55
61136;BME280;47021;51.340;12.432;2023-05-01T06:13:11;100320.09;;;12.68;49.89
61136;BME280;47021;51.340;12.432;2023-05-01T06:15:36;100318.59;;;12.26;50.97
61136;BME280;47021;51.340;12.432;2023-05-01T06:18:02;100306.53;;;12.35;51.23
61136;BME280;47021;51.340;12.432;2023-05-01T06:20:28;100310.06;;;12.15;51.72
61136;BME280;47021;51.340;12.432;2023-05-01T06:22:53;100303.09;;;12.44;50.93
61136;BME280;47021;51.340;12.432;2023-05-01T06:25:18;100315.22;;;12.45;50.50
61136;BME280;47021;51.340;12.432;2023-05-01T06:27:44;100305.63;;;12.64;50.70
61136;BME280;47021;51.340;12.432;2023-05-01T06:30:11;100313.75;;;12.71;50.17
61136;BME280;47021;51.340;12.432;2023-05-01T06:32:36;100311.06;;;13.11;49.31
61136;BME280;47021;51.340;12.432;2023-05-01T06:35:02;100307.03;;;13.07;49.32
61136;BME280;47021;51.340;12.432;2023-05-01T06:37:29;100309.81;;;13.15;49.35
61136;BME280;47021;51.340;12.432;2023-05-01T06:39:56;100311.09;;;13.57;48.59
61136;BME280;47021;51.340;12.432;2023-05-01T06:42:23;100306.34;;;13.33;49.12
61136;BME280;47021;51.340;12.432;2023-05-01T06:45:03;100298.34;;;13.81;48.26
61136;BME280;47021;51.340;12.432;2023-05-01T06:47:29;100302.78;;;14.08;47.89
61136;BME280;47021;51.340;12.432;2023-05-01T06:49:54;100300.53;;;13.86;47.64
61136;BME280;47021;51.340;12.432;2023-05-01T06:52:20;100293.72;;;14.02;47.93
61136;BME280;47021;51.340;12.432;2023-05-01T06:54:45;100292.88;;;14.29;47.43
61136;BME280;47021;51.340;12.432;2023-05-01T06:57:19;100292.19;;;14.27;47.69
61136;BME280;47021;51.340;12.432;2023-05-01T06:59:44;100300.19;;;14.26;47.56
61136;BME280;47021;51.340;12.432;2023-05-01T07:02:09;100295.50;;;14.29;48.27
61136;BME280;47021;51.340;12.432;2023-05-01T07:04:34;100293.53;;;14.58;47.00
61136;BME280;47021;51.340;12.432;2023-05-01T07:07:01;100294.66;;;14.29;47.28
61136;BME280;47021;51.340;12.432;2023-05-01T07:09:28;100289.06;;;14.68;47.08
61136;BME280;47021;51.340;12.432;2023-05-01T07:14:35;100281.66;;;15.25;46.01
61136;BME280;47021;51.340;12.432;2023-05-01T07:19:44;100277.91;;;15.27;45.27
61136;BME280;47021;51.340;12.432;2023-05-01T07:24:54;100265.09;;;15.32;46.26
61136;BME280;47021;51.340;12.432;2023-05-01T07:27:25;100276.75;;;15.47;46.04
61136;BME280;47021;51.340;12.432;2023-05-01T07:29:56;100274.31;;;15.54;45.75
61136;BME280;47021;51.340;12.432;2023-05-01T07:32:25;100269.06;;;15.36;45.75
61136;BME280;47021;51.340;12.432;2023-05-01T07:34:57;100268.81;;;15.99;44.46
61136;BME280;47021;51.340;12.432;2023-05-01T07:37:23;100263.84;;;16.46;43.31
61136;BME280;47021;51.340;12.432;2023-05-01T07:39:48;100261.13;;;16.63;43.03
61136;BME280;47021;51.340;12.432;2023-05-01T07:42:15;100256.19;;;17.09;42.15
61136;BME280;47021;51.340;12.432;2023-05-01T07:44:42;100249.44;;;17.14;41.66
61136;BME280;47021;51.340;12.432;2023-05-01T07:47:09;100262.28;;;17.25;42.24
61136;BME280;47021;51.340;12.432;2023-05-01T07:49:34;100253.00;;;17.37;41.32
61136;BME280;47021;51.340;12.432;2023-05-01T07:52:07;100255.03;;;17.11;40.89
61136;BME280;47021;51.340;12.432;2023-05-01T07:54:39;100255.03;;;17.27;41.16
61136;BME280;47021;51.340;12.432;2023-05-01T07:57:17;100244.91;;;17.47;40.97
61136;BME280;47021;51.340;12.432;2023-05-01T07:59:42;100249.88;;;17.42;40.91
61136;BME280;47021;51.340;12.432;2023-05-01T08:02:07;100241.81;;;17.59;40.72
61136;BME280;47021;51.340;12.432;2023-05-01T08:04:42;100247.91;;;17.60;40.44
61136;BME280;47021;51.340;12.432;2023-05-01T08:09:59;100243.28;;;17.54;40.57
61136;BME280;47021;51.340;12.432;2023-05-01T08:15:47;100238.47;;;17.66;39.27
61136;BME280;47021;51.340;12.432;2023-05-01T08:23:53;100236.97;;;18.10;39.30
61136;BME280;47021;51.340;12.432;2023-05-01T08:26:21;100229.91;;;18.02;39.46
61136;BME280;47021;51.340;12.432;2023-05-01T08:34:16;100228.38;;;18.92;39.55
61136;BME280;47021;51.340;12.432;2023-05-01T08:36:42;100220.47;;;19.07;37.27
61136;BME280;47021;51.340;12.432;2023-05-01T08:39:26;100222.50;;;18.28;36.97
61136;BME280;47021;51.340;12.432;2023-05-01T08:44:39;100224.44;;;18.65;38.42
61136;BME280;47021;51.340;12.432;2023-05-01T08:47:13;100217.97;;;18.90;37.59
61136;BME280;47021;51.340;12.432;2023-05-01T08:49:39;100216.94;;;18.91;38.20
61136;BME280;47021;51.340;12.432;2023-05-01T08:52:05;100209.19;;;19.27;37.34
61136;BME280;47021;51.340;12.432;2023-05-01T08:54:31;100207.03;;;19.08;37.02
61136;BME280;47021;51.340;12.432;2023-05-01T08:57:01;100197.94;;;19.11;36.58
61136;BME280;47021;51.340;12.432;2023-05-01T09:02:10;100196.44;;;19.45;37.72
61136;BME280;47021;51.340;12.432;2023-05-01T09:04:38;100190.66;;;19.86;37.93
61136;BME280;47021;51.340;12.432;2023-05-01T09:07:05;100190.16;;;20.26;36.51
61136;BME280;47021;51.340;12.432;2023-05-01T09:09:31;100190.50;;;20.08;36.21
61136;BME280;47021;51.340;12.432;2023-05-01T09:12:07;100184.97;;;20.39;35.97
61136;BME280;47021;51.340;12.432;2023-05-01T09:14:35;100179.66;;;20.39;36.20
61136;BME280;47021;51.340;12.432;2023-05-01T09:17:01;100171.75;;;20.24;37.13
61136;BME280;47021;51.340;12.432;2023-05-01T09:19:28;100167.16;;;20.54;35.41
61136;BME280;47021;51.340;12.432;2023-05-01T09:21:55;100169.34;;;20.29;36.40
61136;BME280;47021;51.340;12.432;2023-05-01T09:24:30;100175.53;;;20.79;36.40
61136;BME280;47021;51.340;12.432;2023-05-01T09:43:30;100138.91;;;21.64;34.75
61136;BME280;47021;51.340;12.432;2023-05-01T10:29:01;100093.47;;;22.06;31.25
61136;BME280;47021;51.340;12.432;2023-05-01T10:31:30;100100.06;;;22.49;30.76
61136;BME280;47021;51.340;12.432;2023-05-01T10:39:37;100084.69;;;22.97;29.65
61136;BME280;47021;51.340;12.432;2023-05-01T10:53:36;100047.53;;;24.04;28.10
61136;BME280;47021;51.340;12.432;2023-05-01T11:26:13;100021.81;;;25.02;28.53
61136;BME280;47021;51.340;12.432;2023-05-01T11:31:27;100014.88;;;23.40;29.34
61136;BME280;47021;51.340;12.432;2023-05-01T11:39:27;99995.53;;;23.51;30.49
61136;BME280;47021;51.340;12.432;2023-05-01T11:42:11;99996.88;;;22.45;31.04
61136;BME280;47021;51.340;12.432;2023-05-01T11:47:25;99985.34;;;23.41;30.45
61136;BME280;47021;51.340;12.432;2023-05-01T12:24:18;99935.56;;;24.95;27.43
61136;BME280;47021;51.340;12.432;2023-05-01T12:40:29;99909.06;;;26.17;26.50
61136;BME280;47021;51.340;12.432;2023-05-01T12:42:55;99905.84;;;25.74;26.36
61136;BME280;47021;51.340;12.432;2023-05-01T12:45:21;99914.56;;;25.40;26.94
61136;BME280;47021;51.340;12.432;2023-05-01T12:47:53;99911.66;;;25.59;27.82
61136;BME280;47021;51.340;12.432;2023-05-01T12:50:27;99913.13;;;24.60;27.50
61136;BME280;47021;51.340;12.432;2023-05-01T12:53:01;99907.38;;;24.44;28.20
61136;BME280;47021;51.340;12.432;2023-05-01T12:55:26;99899.34;;;25.81;26.35
61136;BME280;47021;51.340;12.432;2023-05-01T12:57:53;99897.13;;;26.48;25.62
61136;BME280;47021;51.340;12.432;2023-05-01T13:00:19;99887.13;;;26.95;24.42
61136;BME280;47021;51.340;12.432;2023-05-01T13:03:01;99888.66;;;26.39;24.68
61136;BME280;47021;51.340;12.432;2023-05-01T13:10:54;99885.31;;;26.84;25.35
61136;BME280;47021;51.340;12.432;2023-05-01T13:16:14;99884.34;;;25.80;24.71
61136;BME280;47021;51.340;12.432;2023-05-01T13:18:47;99888.88;;;25.91;25.35
61136;BME280;47021;51.340;12.432;2023-05-01T13:21:22;99887.50;;;26.01;25.45
61136;BME280;47021;51.340;12.432;2023-05-01T13:23:56;99878.63;;;25.77;26.24
61136;BME280;47021;51.340;12.432;2023-05-01T13:26:26;99883.75;;;26.36;25.78
61136;BME280;47021;51.340;12.432;2023-05-01T13:28:53;99884.25;;;26.73;26.02
61136;BME280;47021;51.340;12.432;2023-05-01T13:31:19;99879.22;;;26.25;25.25
61136;BME280;47021;51.340;12.432;2023-05-01T13:33:45;99877.13;;;26.27;25.60
61136;BME280;47021;51.340;12.432;2023-05-01T13:36:13;99879.69;;;26.22;26.22
61136;BME280;47021;51.340;12.432;2023-05-01T13:38:44;99874.13;;;26.75;25.66
61136;BME280;47021;51.340;12.432;2023-05-01T13:41:18;99877.38;;;26.77;25.71
61136;BME280;47021;51.340;12.432;2023-05-01T13:43:46;99867.81;;;27.09;25.91
61136;BME280;47021;51.340;12.432;2023-05-01T13:46:21;99877.44;;;26.54;26.29
61136;BME280;47021;51.340;12.432;2023-05-01T13:48:46;99874.22;;;25.94;26.76
61136;BME280;47021;51.340;12.432;2023-05-01T13:51:13;99877.00;;;25.99;27.56
61136;BME280;47021;51.340;12.432;2023-05-01T13:53:40;99875.50;;;26.03;26.80
61136;BME280;47021;51.340;12.432;2023-05-01T13:56:06;99873.53;;;25.75;28.42
61136;BME280;47021;51.340;12.432;2023-05-01T13:58:33;99867.25;;;26.16;27.55
61136;BME280;47021;51.340;12.432;2023-05-01T14:01:01;99864.59;;;26.79;26.95
61136;BME280;47021;51.340;12.432;2023-05-01T14:03:39;99868.59;;;26.93;27.28
61136;BME280;47021;51.340;12.432;2023-05-01T14:06:10;99867.66;;;27.44;25.91
61136;BME280;47021;51.340;12.432;2023-05-01T14:08:36;99856.44;;;27.47;25.99
61136;BME280;47021;51.340;12.432;2023-05-01T14:11:05;99856.34;;;27.42;26.05
61136;BME280;47021;51.340;12.432;2023-05-01T14:13:30;99860.69;;;26.47;27.48
61136;BME280;47021;51.340;12.432;2023-05-01T14:18:43;99854.28;;;25.02;29.15
61136;BME280;47021;51.340;12.432;2023-05-01T14:21:19;99853.47;;;25.02;28.74
61136;BME280;47021;51.340;12.432;2023-05-01T14:23:51;99847.59;;;25.87;27.56
61136;BME280;47021;51.340;12.432;2023-05-01T14:26:17;99846.72;;;24.99;29.09
61136;BME280;47021;51.340;12.432;2023-05-01T14:28:49;99847.69;;;24.87;29.80
61136;BME280;47021;51.340;12.432;2023-05-01T14:31:24;99841.28;;;24.76;27.80
61136;BME280;47021;51.340;12.432;2023-05-01T14:33:57;99837.09;;;25.86;27.61
61136;BME280;47021;51.340;12.432;2023-05-01T14:36:22;99839.47;;;25.30;28.54
61136;BME280;47021;51.340;12.432;2023-05-01T14:38:48;99832.91;;;25.90;27.58
61136;BME280;47021;51.340;12.432;2023-05-01T14:41:16;99840.25;;;26.18;27.05
61136;BME280;47021;51.340;12.432;2023-05-01T14:43:49;99839.44;;;26.57;26.17
61136;BME280;47021;51.340;12.432;2023-05-01T14:46:18;99839.44;;;25.94;27.59
61136;BME280;47021;51.340;12.432;2023-05-01T14:48:49;99839.38;;;26.40;26.31
61136;BME280;47021;51.340;12.432;2023-05-01T14:51:18;99828.50;;;26.19;26.48
61136;BME280;47021;51.340;12.432;2023-05-01T14:53:46;99828.56;;;27.03;25.95
61136;BME280;47021;51.340;12.432;2023-05-01T14:56:18;99831.44;;;27.30;25.14
61136;BME280;47021;51.340;12.432;2023-05-01T14:58:44;99832.50;;;27.12;25.97
61136;BME280;47021;51.340;12.432;2023-05-01T15:01:12;99834.34;;;27.12;26.11
61136;BME280;47021;51.340;12.432;2023-05-01T15:03:38;99834.34;;;25.28;27.51
61136;BME280;47021;51.340;12.432;2023-05-01T15:06:05;99837.44;;;25.55;28.43
61136;BME280;47021;51.340;12.432;2023-05-01T15:08:37;99833.88;;;25.31;28.87
61136;BME280;47021;51.340;12.432;2023-05-01T15:13:58;99836.59;;;23.74;31.70
61136;BME280;47021;51.340;12.432;2023-05-01T15:16:23;99824.44;;;24.39;31.23
61136;BME280;47021;51.340;12.432;2023-05-01T15:18:49;99827.69;;;23.87;31.46
61136;BME280;47021;51.340;12.432;2023-05-01T15:21:15;99828.84;;;23.48;31.87
61136;BME280;47021;51.340;12.432;2023-05-01T15:23:41;99830.91;;;23.71;31.40
61136;BME280;47021;51.340;12.432;2023-05-01T15:26:06;99825.66;;;23.82;31.18
61136;BME280;47021;51.340;12.432;2023-05-01T15:31:08;99823.31;;;23.18;33.02
61136;BME280;47021;51.340;12.432;2023-05-01T15:33:41;99831.47;;;23.55;32.60
61136;BME280;47021;51.340;12.432;2023-05-01T15:36:14;99831.47;;;23.24;33.05
61136;BME280;47021;51.340;12.432;2023-05-01T15:38:39;99831.56;;;23.10;33.57
61136;BME280;47021;51.340;12.432;2023-05-01T15:41:07;99827.84;;;23.43;32.31
61136;BME280;47021;51.340;12.432;2023-05-01T15:43:34;99833.94;;;23.74;32.15
61136;BME280;47021;51.340;12.432;2023-05-01T15:46:00;99830.09;;;23.46;33.03
61136;BME280;47021;51.340;12.432;2023-05-01T15:48:32;99824.50;;;23.23;32.96
61136;BME280;47021;51.340;12.432;2023-05-01T15:50:57;99823.03;;;22.64;33.22
61136;BME280;47021;51.340;12.432;2023-05-01T15:53:23;99825.13;;;22.93;33.81
61136;BME280;47021;51.340;12.432;2023-05-01T15:55:49;99820.56;;;22.63;34.17
61136;BME280;47021;51.340;12.432;2023-05-01T15:58:21;99819.34;;;22.59;33.20
61136;BME280;47021;51.340;12.432;2023-05-01T16:00:53;99815.03;;;21.80;34.75
61136;BME280;47021;51.340;12.432;2023-05-01T16:03:24;99816.97;;;22.37;33.88
61136;BME280;47021;51.340;12.432;2023-05-01T16:05:49;99820.25;;;22.84;32.80
61136;BME280;47021;51.340;12.432;2023-05-01T16:08:22;99823.88;;;22.52;33.58
61136;BME280;47021;51.340;12.432;2023-05-01T16:10:49;99817.75;;;22.44;34.25
61136;BME280;47021;51.340;12.432;2023-05-01T16:13:16;99819.84;;;22.36;33.82
61136;BME280;47021;51.340;12.432;2023-05-01T16:15:41;99824.84;;;22.70;33.40
61136;BME280;47021;51.340;12.432;2023-05-01T16:18:06;99825.72;;;22.44;33.21
61136;BME280;47021;51.340;12.432;2023-05-01T16:20:47;99826.28;;;22.09;34.27
61136;BME280;47021;51.340;12.432;2023-05-01T16:23:26;99821.16;;;22.07;34.66
61136;BME280;47021;51.340;12.432;2023-05-01T16:51:04;99813.75;;;22.22;34.20
61136;BME280;47021;51.340;12.432;2023-05-01T16:53:29;99811.84;;;22.36;33.97
61136;BME280;47021;51.340;12.432;2023-05-01T16:55:55;99808.47;;;22.16;33.79
61136;BME280;47021;51.340;12.432;2023-05-01T16:58:33;99812.63;;;21.86;34.30
61136;BME280;47021;51.340;12.432;2023-05-01T17:01:04;99808.78;;;22.32;33.88
61136;BME280;47021;51.340;12.432;2023-05-01T17:03:30;99811.16;;;21.96;34.18
61136;BME280;47021;51.340;12.432;2023-05-01T17:05:55;99818.72;;;21.73;34.71
61136;BME280;47021;51.340;12.432;2023-05-01T17:08:20;99814.63;;;22.03;35.10
61136;BME280;47021;51.340;12.432;2023-05-01T17:10:45;99822.19;;;22.06;34.09
61136;BME280;47021;51.340;12.432;2023-05-01T17:13:17;99817.72;;;21.48;34.83
61136;BME280;47021;51.340;12.432;2023-05-01T17:15:52;99825.69;;;21.67;34.89
61136;BME280;47021;51.340;12.432;2023-05-01T17:21:13;99822.41;;;21.98;35.36
61136;BME280;47021;51.340;12.432;2023-05-01T17:26:58;99824.25;;;21.71;35.82
61136;BME280;47021;51.340;12.432;2023-05-01T17:29:43;99816.50;;;21.90;35.89
61136;BME280;47021;51.340;12.432;2023-05-01T17:35:04;99823.16;;;22.25;35.03
61136;BME280;47021;51.340;12.432;2023-05-01T17:37:32;99823.81;;;22.14;35.65
61136;BME280;47021;51.340;12.432;2023-05-01T17:42:34;99827.88;;;22.16;34.76
61136;BME280;47021;51.340;12.432;2023-05-01T17:45:03;99830.03;;;22.45;34.77
61136;BME280;47021;51.340;12.432;2023-05-01T17:47:43;99832.06;;;22.50;34.43
61136;BME280;47021;51.340;12.432;2023-05-01T17:50:21;99834.16;;;22.35;34.50
61136;BME280;47021;51.340;12.432;2023-05-01T17:55:43;99834.91;;;22.48;35.05
61136;BME280;47021;51.340;12.432;2023-05-01T17:58:08;99845.41;;;22.43;35.74
61136;BME280;47021;51.340;12.432;2023-05-01T18:03:09;99845.28;;;22.25;35.82
61136;BME280;47021;51.340;12.432;2023-05-01T18:08:10;99850.22;;;21.89;36.84
61136;BME280;47021;51.340;12.432;2023-05-01T18:10:43;99861.66;;;21.83;37.16
61136;BME280;47021;51.340;12.432;2023-05-01T18:13:08;99858.81;;;21.85;37.15
61136;BME280;47021;51.340;12.432;2023-05-01T18:15:35;99862.91;;;21.35;38.08
61136;BME280;47021;51.340;12.432;2023-05-01T18:18:06;99871.91;;;21.53;38.00
61136;BME280;47021;51.340;12.432;2023-05-01T18:20:40;99872.50;;;21.68;37.78